Terminal Aerodrome Forecast
Issued by NWS Raleigh/Durham, NC

Home | Current Version | Previous Version | Text Only | Print | Product List | Glossary On
Versions: 1 2 3 4 5 6 7 8 9 10 11 12 13 14 15 16 17 18 19 20 21 22 23 24 25 26 27 28 29 30 31 32 33 34 35
000
FTUS42 KRAH 041739
TAFFAY
TAF
KFAY 041739Z 0418/0518 24013G26KT P6SM BKN050
      TEMPO 0420/0423 VRB20G38KT 2SM TSRA SCT025 BKN040CB
     FM050000 24009KT P6SM SCT045 SCT120
     FM051500 22011KT P6SM SCT050=

USA.gov is the U.S. government's official web portal to all federal, state and local government web resources and services.